Time;durP1;ratioP1;P1;durP2;ratioP2;P2;SDS_P1;SDS_P2;PMS_P1;PMS_P2;Temp;Humidity;BMP_temperature;BMP_pressure;BME280_temperature;BME280_humidity;BME280_pressure;Samples;Min_cycle;Max_cycle;Signal;HPM_P1;HPM_P2
2022/04/05 00:00:28;;;;;;;0.40;0.35;;;21.30;44.20;;;;;;5016271;28;20385;-62
2022/04/05 00:02:55;;;;;;;0.60;0.30;;;21.30;44.20;;;;;;4996475;28;20400;-64
2022/04/05 00:05:21;;;;;;;0.60;0.40;;;21.30;44.20;;;;;;5034889;28;20132;-63
2022/04/05 00:07:46;;;;;;;0.70;0.40;;;21.30;44.90;;;;;;5035538;28;20392;-63
2022/04/05 00:10:13;;;;;;;0.80;0.50;;;21.30;44.10;;;;;;5019833;28;20519;-62
2022/04/05 00:12:38;;;;;;;1.73;0.30;;;21.20;44.10;;;;;;5035358;28;20120;-64
2022/04/05 00:15:05;;;;;;;1.02;0.50;;;21.20;44.10;;;;;;5017965;28;20098;-62
2022/04/05 00:17:32;;;;;;;1.13;0.43;;;21.20;44.10;;;;;;5034337;28;20057;-62
2022/04/05 00:19:58;;;;;;;0.77;0.40;;;21.20;44.10;;;;;;5037975;28;20095;-63
2022/04/05 00:22:23;;;;;;;0.98;0.32;;;21.20;44.10;;;;;;5017046;28;20079;-62
2022/04/05 00:24:50;;;;;;;1.77;0.55;;;21.20;44.10;;;;;;5018344;28;20365;-62
2022/04/05 00:27:16;;;;;;;1.40;0.50;;;21.20;44.00;;;;;;5035493;28;20072;-63
2022/04/05 00:29:41;;;;;;;0.75;0.30;;;21.10;44.00;;;;;;5015818;28;20049;-63
2022/04/05 00:32:08;;;;;;;1.05;0.40;;;21.10;44.00;;;;;;5016164;28;20033;-62
2022/04/05 00:34:34;;;;;;;0.73;0.40;;;21.10;44.00;;;;;;5036480;28;20051;-64
2022/04/05 00:37:00;;;;;;;0.93;0.30;;;21.10;44.00;;;;;;5017211;28;20053;-63
2022/04/05 00:39:26;;;;;;;0.95;0.32;;;21.10;44.00;;;;;;5032917;28;20120;-62
2022/04/05 00:41:52;;;;;;;1.05;0.40;;;21.10;44.00;;;;;;5018888;28;20454;-63
2022/04/05 00:44:18;;;;;;;0.50;0.30;;;21.10;44.00;;;;;;5017615;28;20128;-63
2022/04/05 00:46:44;;;;;;;0.43;0.30;;;21.10;44.00;;;;;;5034209;28;20536;-62
2022/04/05 00:49:15;;;;;;;1.02;0.40;;;21.10;44.00;;;;;;5034639;28;20056;-63
2022/04/05 00:51:40;;;;;;;;;;;21.00;43.90;;;;;;5017174;28;20044;-63
2022/04/05 00:54:06;;;;;;;0.75;0.38;;;21.00;43.90;;;;;;5033235;28;19983;-62
2022/04/05 00:56:35;;;;;;;0.40;0.20;;;21.00;44.00;;;;;;5015508;28;20052;-63
2022/04/05 00:59:02;;;;;;;0.95;0.40;;;21.00;44.00;;;;;;5034596;28;20076;-62
2022/04/05 01:01:30;;;;;;;0.25;0.20;;;21.00;43.90;;;;;;4999781;28;20048;-63
2022/04/05 01:03:56;;;;;;;1.45;0.50;;;21.00;43.90;;;;;;5000757;28;20069;-64
2022/04/05 01:06:31;;;;;;;0.57;0.40;;;21.00;43.90;;;;;;5012908;28;20060;-63
2022/04/05 01:08:57;;;;;;;1.38;0.40;;;21.00;43.90;;;;;;5033307;28;20031;-62
2022/04/05 01:11:23;;;;;;;0.80;0.30;;;21.00;43.90;;;;;;5034495;28;20048;-63
2022/04/05 01:13:49;;;;;;;0.70;0.40;;;21.00;43.90;;;;;;5016151;28;20448;-62
2022/04/05 01:16:17;;;;;;;0.70;0.40;;;21.00;43.90;;;;;;5017929;28;20160;-62
2022/04/05 01:18:43;;;;;;;1.08;0.30;;;20.90;43.80;;;;;;5015124;28;20080;-63
2022/04/05 01:21:08;;;;;;;0.43;0.28;;;20.90;43.90;;;;;;5032467;28;20119;-63
2022/04/05 01:23:34;;;;;;;1.15;0.40;;;20.90;43.90;;;;;;5014336;28;20106;-64
2022/04/05 01:26:00;;;;;;;0.65;0.28;;;20.90;43.80;;;;;;5016551;28;20063;-62
2022/04/05 01:28:26;;;;;;;2.05;0.63;;;20.90;43.80;;;;;;5018276;28;20037;-64
2022/04/05 01:30:52;;;;;;;0.60;0.38;;;20.90;43.90;;;;;;5034069;28;20049;-62
2022/04/05 01:33:18;;;;;;;0.68;0.25;;;20.90;43.80;;;;;;5015839;28;20385;-62
2022/04/05 01:35:43;;;;;;;1.33;0.30;;;20.90;43.80;;;;;;5036062;28;20080;-63
2022/04/05 01:38:13;;;;;;;0.50;0.32;;;20.90;43.80;;;;;;5032187;28;20037;-63
2022/04/05 01:40:38;;;;;;;1.25;0.30;;;20.90;43.80;;;;;;5033244;28;20041;-63
2022/04/05 01:43:04;;;;;;;0.68;0.22;;;20.80;43.70;;;;;;5015594;28;20369;-64
2022/04/05 01:45:30;;;;;;;1.05;0.20;;;20.80;43.70;;;;;;5032055;28;20072;-63
2022/04/05 01:47:56;;;;;;;0.90;0.40;;;20.80;43.70;;;;;;5018382;28;20045;-62
2022/04/05 01:50:23;;;;;;;0.93;0.30;;;20.80;43.70;;;;;;5022702;28;20144;-63
2022/04/05 01:52:48;;;;;;;0.43;0.32;;;20.80;43.70;;;;;;5020042;28;20060;-63
2022/04/05 01:55:14;;;;;;;1.48;0.63;;;20.80;43.70;;;;;;5023051;28;20037;-64
2022/04/05 01:57:40;;;;;;;0.52;0.30;;;20.80;43.60;;;;;;5039543;28;20518;-63
2022/04/05 02:00:14;;;;;;;1.73;0.35;;;20.80;43.70;;;;;;5020980;28;20060;-65
2022/04/05 02:02:40;;;;;;;0.60;0.30;;;20.80;43.70;;;;;;5015891;28;20052;-64
2022/04/05 02:05:07;;;;;;;0.77;0.38;;;20.80;43.70;;;;;;5037660;28;20038;-64
2022/04/05 02:07:33;;;;;;;1.13;0.20;;;20.80;43.60;;;;;;5019173;28;20088;-63
2022/04/05 02:09:58;;;;;;;0.60;0.30;;;20.80;43.70;;;;;;5040212;28;20077;-63
2022/04/05 02:12:24;;;;;;;0.52;0.30;;;20.80;43.70;;;;;;5024506;28;20096;-62
2022/04/05 02:14:49;;;;;;;0.40;0.30;;;20.80;43.70;;;;;;5020301;28;20516;-63
2022/04/05 02:17:15;;;;;;;0.70;0.20;;;20.80;43.70;;;;;;5039924;28;20052;-63
2022/04/05 02:19:41;;;;;;;0.95;0.40;;;20.70;43.60;;;;;;5021721;28;20128;-63
2022/04/05 02:22:07;;;;;;;0.50;0.30;;;20.70;43.60;;;;;;5020495;28;20045;-63
2022/04/05 02:24:32;;;;;;;0.65;0.30;;;20.70;43.60;;;;;;5041974;28;20048;-63
2022/04/05 02:26:58;;;;;;;0.85;0.47;;;20.70;43.60;;;;;;5034872;28;20064;-63
2022/04/05 02:29:23;;;;;;;0.80;0.30;;;20.70;43.70;;;;;;5017766;28;20049;-62
2022/04/05 02:31:49;;;;;;;1.83;0.50;;;20.70;43.70;;;;;;5038014;28;20045;-62
2022/04/05 02:34:15;;;;;;;1.00;0.70;;;20.70;43.80;;;;;;5039406;28;20049;-63
2022/04/05 02:36:41;;;;;;;1.02;0.35;;;20.70;43.70;;;;;;5038325;28;20122;-63
2022/04/05 02:39:06;;;;;;;0.80;0.30;;;20.60;43.60;;;;;;5040096;28;20349;-63
2022/04/05 02:41:32;;;;;;;0.45;0.20;;;20.60;43.60;;;;;;5019648;28;20049;-63
2022/04/05 02:44:00;;;;;;;0.40;0.20;;;20.60;43.60;;;;;;5041248;28;20056;-62
2022/04/05 02:46:27;;;;;;;0.98;0.40;;;20.60;43.60;;;;;;5029104;28;20155;-63
2022/04/05 02:48:54;;;;;;;0.50;0.25;;;20.60;43.60;;;;;;5038391;28;20168;-63
2022/04/05 02:51:21;;;;;;;0.28;0.28;;;20.60;43.60;;;;;;5038190;28;20053;-62
2022/04/05 02:53:47;;;;;;;0.95;0.40;;;20.60;43.60;;;;;;5039717;28;20060;-65
2022/04/05 02:56:13;;;;;;;0.88;0.30;;;20.60;43.50;;;;;;5040011;28;20045;-63
2022/04/05 02:58:39;;;;;;;1.55;0.35;;;20.60;43.60;;;;;;5019415;28;20401;-63
2022/04/05 03:01:05;;;;;;;1.08;0.40;;;20.60;43.60;;;;;;5001345;28;20052;-63
2022/04/05 03:03:35;;;;;;;0.75;0.32;;;20.60;43.50;;;;;;5018660;28;20136;-63
2022/04/05 03:06:01;;;;;;;0.60;0.30;;;20.60;43.50;;;;;;5020581;28;20099;-63
2022/04/05 03:08:26;;;;;;;0.77;0.40;;;20.60;43.50;;;;;;5020596;28;20535;-62
2022/04/05 03:10:53;;;;;;;0.30;0.30;;;20.60;43.50;;;;;;5019308;28;20052;-63
2022/04/05 03:13:19;;;;;;;0.50;0.20;;;20.50;43.40;;;;;;5036620;28;20144;-62
2022/04/05 03:15:45;;;;;;;0.40;0.10;;;20.50;43.50;;;;;;5035128;28;20049;-64
2022/04/05 03:18:11;;;;;;;0.90;0.50;;;20.60;43.50;;;;;;5019201;28;20056;-63
2022/04/05 03:20:37;;;;;;;0.73;0.20;;;20.50;43.40;;;;;;5034401;28;20037;-63
2022/04/05 03:23:03;;;;;;;0.80;0.30;;;20.50;43.40;;;;;;5017329;28;20492;-63
2022/04/05 03:25:28;;;;;;;1.17;0.32;;;20.50;43.40;;;;;;5034838;28;20329;-62
2022/04/05 03:27:54;;;;;;;0.98;0.40;;;20.50;43.40;;;;;;5033347;28;20136;-62
2022/04/05 03:30:22;;;;;;;0.52;0.13;;;20.50;43.40;;;;;;5035237;28;20064;-64
2022/04/05 03:32:48;;;;;;;0.60;0.20;;;20.50;43.40;;;;;;5001541;28;20041;-66
2022/04/05 03:35:14;;;;;;;1.05;0.50;;;20.50;43.40;;;;;;4998269;28;20118;-63
2022/04/05 03:37:40;;;;;;;0.80;0.32;;;20.50;43.40;;;;;;5034051;28;20437;-63
2022/04/05 03:40:07;;;;;;;0.55;0.30;;;20.50;43.40;;;;;;5018680;28;20060;-63
2022/04/05 03:42:33;;;;;;;1.05;0.70;;;20.50;43.50;;;;;;5032840;28;20393;-63
2022/04/05 03:44:59;;;;;;;0.43;0.38;;;20.50;43.40;;;;;;5017119;28;20041;-62
2022/04/05 03:47:26;;;;;;;0.93;0.30;;;20.50;43.40;;;;;;5033393;28;20055;-64
2022/04/05 03:49:52;;;;;;;1.17;0.40;;;20.50;43.50;;;;;;5035413;28;20048;-63
2022/04/05 03:52:17;;;;;;;1.35;0.57;;;20.50;43.40;;;;;;5018483;28;20095;-63
2022/04/05 03:54:43;;;;;;;0.68;0.30;;;20.40;43.30;;;;;;5035505;28;20079;-63
2022/04/05 03:57:08;;;;;;;2.08;0.50;;;20.40;43.40;;;;;;5017518;28;20073;-63
2022/04/05 03:59:34;;;;;;;0.77;0.30;;;20.40;43.40;;;;;;5036814;28;20045;-63
2022/04/05 04:01:59;;;;;;;0.28;0.20;;;20.40;43.40;;;;;;5012422;28;20037;-63
2022/04/05 04:04:25;;;;;;;1.08;0.40;;;20.40;43.40;;;;;;5033554;28;20535;-63
2022/04/05 04:06:51;;;;;;;0.80;0.32;;;20.40;43.40;;;;;;5016939;28;20087;-63
2022/04/05 04:09:16;;;;;;;1.25;0.30;;;20.40;43.40;;;;;;5016261;28;20045;-63
2022/04/05 04:11:42;;;;;;;0.77;0.50;;;20.40;43.40;;;;;;5033766;28;20052;-64
2022/04/05 04:14:08;;;;;;;0.73;0.30;;;20.40;43.40;;;;;;5016817;28;20499;-63
2022/04/05 04:16:34;;;;;;;1.15;0.20;;;20.40;43.40;;;;;;5035573;28;20044;-62
2022/04/05 04:18:59;;;;;;;0.52;0.30;;;20.40;43.40;;;;;;5035594;28;20138;-63
2022/04/05 04:21:25;;;;;;;0.85;0.30;;;20.40;43.40;;;;;;5035043;28;20797;-63
2022/04/05 04:23:51;;;;;;;0.73;0.30;;;20.40;43.50;;;;;;5034963;28;20040;-63
2022/04/05 04:26:16;;;;;;;0.50;0.40;;;20.40;43.40;;;;;;5003501;28;20086;-63
2022/04/05 04:28:42;;;;;;;1.00;0.50;;;20.40;43.40;;;;;;5034918;28;20352;-63
2022/04/05 04:31:08;;;;;;;0.50;0.30;;;20.40;43.40;;;;;;5016972;28;20036;-64
2022/04/05 04:33:33;;;;;;;0.35;0.28;;;20.40;43.40;;;;;;5018208;28;20064;-61
2022/04/05 04:35:59;;;;;;;0.80;0.45;;;20.40;43.40;;;;;;5034618;28;20045;-61
2022/04/05 04:38:25;;;;;;;1.17;0.30;;;20.40;43.50;;;;;;5016264;28;20540;-62
2022/04/05 04:40:51;;;;;;;0.65;0.30;;;20.40;43.50;;;;;;5035015;28;20179;-62
2022/04/05 04:43:17;;;;;;;0.47;0.40;;;20.40;43.50;;;;;;5000452;28;20099;-62
2022/04/05 04:45:44;;;;;;;1.17;0.35;;;20.30;43.40;;;;;;5035909;28;20480;-62
2022/04/05 04:48:10;;;;;;;0.85;0.32;;;20.30;43.50;;;;;;5034972;28;20063;-62
2022/04/05 04:50:36;;;;;;;1.15;0.40;;;20.30;43.50;;;;;;4999034;28;20049;-62
2022/04/05 04:53:02;;;;;;;0.88;0.38;;;20.30;43.50;;;;;;5033183;28;20140;-62
2022/04/05 04:55:28;;;;;;;0.73;0.47;;;20.30;43.60;;;;;;5016661;28;20180;-62
2022/04/05 04:57:54;;;;;;;0.63;0.45;;;20.30;43.70;;;;;;5033982;28;20128;-61
2022/04/05 05:00:20;;;;;;;1.00;0.47;;;20.30;43.70;;;;;;5032537;28;20037;-62
2022/04/05 05:02:50;;;;;;;0.93;0.40;;;20.30;43.70;;;;;;5035434;28;20037;-63
2022/04/05 05:05:17;;;;;;;0.63;0.50;;;20.30;43.70;;;;;;5034754;28;20328;-62
2022/04/05 05:07:44;;;;;;;2.15;0.50;;;20.30;43.80;;;;;;5005128;28;20610;-61
2022/04/05 05:10:11;;;;;;;1.67;0.40;;;20.30;43.80;;;;;;5015552;28;20467;-63
2022/04/05 05:12:41;;;;;;;0.73;0.47;;;20.20;43.70;;;;;;5035027;28;20049;-63
2022/04/05 05:15:13;;;;;;;1.40;0.43;;;20.30;43.80;;;;;;5036430;28;20053;-61
2022/04/05 05:17:39;;;;;;;2.55;0.38;;;20.30;43.80;;;;;;5014672;28;20045;-61
2022/04/05 05:20:06;;;;;;;0.77;0.65;;;20.20;43.80;;;;;;5033555;28;20048;-61
2022/04/05 05:22:31;;;;;;;0.32;0.30;;;20.30;43.80;;;;;;5015622;28;20567;-62
2022/04/05 05:24:57;;;;;;;0.68;0.40;;;20.30;43.80;;;;;;5016202;28;20107;-62
2022/04/05 05:27:23;;;;;;;2.50;0.55;;;20.30;43.80;;;;;;5013946;28;20042;-61
2022/04/05 05:29:48;;;;;;;0.75;0.30;;;20.30;43.90;;;;;;5011747;28;20044;-62
2022/04/05 05:32:14;;;;;;;0.80;0.40;;;20.30;43.90;;;;;;5031950;28;20136;-62
2022/04/05 05:34:39;;;;;;;1.00;0.40;;;20.30;44.00;;;;;;5016216;28;20413;-61
2022/04/05 05:37:05;;;;;;;0.50;0.30;;;20.30;44.00;;;;;;5016674;28;20045;-62
2022/04/05 05:39:32;;;;;;;1.42;0.30;;;20.30;44.00;;;;;;5033906;28;20116;-62
2022/04/05 05:41:58;;;;;;;1.15;0.40;;;20.30;44.00;;;;;;5017240;28;20881;-63
2022/04/05 05:44:24;;;;;;;0.65;0.32;;;20.30;44.20;;;;;;5012641;28;20056;-62
2022/04/05 05:46:51;;;;;;;0.50;0.30;;;20.30;44.10;;;;;;5030242;28;20689;-63
2022/04/05 05:49:17;;;;;;;3.75;0.40;;;20.30;44.00;;;;;;5033533;28;20053;-63
2022/04/05 05:51:43;;;;;;;2.60;0.38;;;20.30;44.10;;;;;;5031778;28;20049;-62
2022/04/05 05:54:08;;;;;;;2.95;0.57;;;20.30;44.10;;;;;;5017752;28;20052;-62
2022/04/05 05:56:34;;;;;;;0.98;0.32;;;20.30;44.10;;;;;;5032532;28;20137;-63
2022/04/05 05:59:00;;;;;;;2.85;0.82;;;20.30;44.10;;;;;;5027117;28;20259;-64
2022/04/05 06:01:25;;;;;;;1.33;0.35;;;20.30;44.00;;;;;;5030182;28;20080;-62
2022/04/05 06:03:51;;;;;;;1.15;0.43;;;20.30;44.00;;;;;;5031234;28;20079;-62
2022/04/05 06:06:17;;;;;;;1.30;0.50;;;20.30;44.00;;;;;;5011907;28;20045;-62
2022/04/05 06:08:42;;;;;;;1.67;0.30;;;20.30;44.00;;;;;;5011280;28;20057;-65
2022/04/05 06:11:08;;;;;;;2.22;0.25;;;20.30;44.10;;;;;;5013875;28;20045;-64
2022/04/05 06:13:34;;;;;;;2.63;0.55;;;20.30;44.10;;;;;;5002705;28;20444;-64
2022/04/05 06:16:00;;;;;;;1.48;0.50;;;20.30;44.20;;;;;;4998797;28;20060;-62
2022/04/05 06:18:26;;;;;;;1.65;0.40;;;20.30;44.20;;;;;;5030572;28;20388;-61
2022/04/05 06:20:51;;;;;;;0.98;0.30;;;20.30;44.20;;;;;;5011245;28;20065;-63
2022/04/05 06:23:17;;;;;;;1.10;0.30;;;20.30;44.20;;;;;;5032012;28;20148;-63
2022/04/05 06:25:43;;;;;;;3.03;0.38;;;20.30;44.30;;;;;;5032197;28;20041;-62
2022/04/05 06:28:09;;;;;;;1.88;0.30;;;20.30;44.30;;;;;;5005235;28;20466;-63
2022/04/05 06:30:37;;;;;;;1.27;0.30;;;20.30;44.30;;;;;;4998123;28;20076;-61
2022/04/05 06:33:12;;;;;;;1.45;0.30;;;20.30;44.20;;;;;;5013680;28;20049;-63
2022/04/05 06:35:39;;;;;;;1.60;0.47;;;20.40;44.30;;;;;;5035890;28;20048;-57
2022/04/05 06:38:05;;;;;;;0.85;0.20;;;20.40;44.20;;;;;;5039021;28;20185;-62
2022/04/05 06:40:32;;;;;;;2.45;0.45;;;20.40;44.20;;;;;;5037187;28;20041;-63
2022/04/05 06:42:57;;;;;;;2.70;0.40;;;20.40;44.20;;;;;;5034620;28;20496;-64
2022/04/05 06:45:24;;;;;;;2.03;0.25;;;20.40;44.10;;;;;;5037053;28;20041;-63
2022/04/05 06:47:50;;;;;;;2.03;0.30;;;20.40;44.10;;;;;;5018252;28;20042;-61
2022/04/05 06:50:20;;;;;;;0.63;0.30;;;20.40;44.10;;;;;;5019137;28;20088;-62
2022/04/05 06:52:46;;;;;;;0.85;0.40;;;20.40;44.00;;;;;;5017911;28;20047;-62
2022/04/05 06:55:13;;;;;;;1.35;0.30;;;20.40;44.00;;;;;;5016696;28;21010;-64
2022/04/05 06:57:39;;;;;;;3.33;0.40;;;20.50;44.10;;;;;;5018851;28;20116;-62
2022/04/05 07:00:07;;;;;;;1.95;0.47;;;20.50;44.20;;;;;;5003019;28;20537;-63
2022/04/05 07:02:33;;;;;;;1.60;0.43;;;20.50;44.20;;;;;;5018286;28;20052;-62
2022/04/05 07:04:58;;;;;;;0.93;0.50;;;20.50;44.20;;;;;;5033432;28;20046;-63
2022/04/05 07:07:24;;;;;;;1.25;0.35;;;20.50;44.10;;;;;;5016221;28;20158;-62
2022/04/05 07:09:49;;;;;;;2.42;0.40;;;20.50;44.20;;;;;;5036322;28;20552;-62
2022/04/05 07:12:15;;;;;;;0.65;0.35;;;20.50;44.20;;;;;;5014287;28;20183;-63
2022/04/05 07:14:41;;;;;;;1.90;0.40;;;20.50;44.20;;;;;;5016466;28;20068;-63
2022/04/05 07:17:06;;;;;;;2.40;0.60;;;20.50;44.20;;;;;;5016193;28;20037;-61
2022/04/05 07:19:33;;;;;;;2.63;0.57;;;20.50;44.20;;;;;;5033919;28;20130;-62
2022/04/05 07:21:59;;;;;;;1.33;0.50;;;20.50;44.20;;;;;;5033229;28;20045;-61
2022/04/05 07:24:26;;;;;;;0.75;0.50;;;20.50;44.30;;;;;;5030600;28;20892;-64
2022/04/05 07:26:52;;;;;;;1.00;0.32;;;20.60;44.30;;;;;;5013536;28;20159;-62
2022/04/05 07:29:18;;;;;;;3.67;0.55;;;20.60;44.40;;;;;;5033090;28;20044;-63
2022/04/05 07:31:43;;;;;;;1.92;0.52;;;20.60;44.50;;;;;;5035359;28;20124;-61
2022/04/05 07:34:09;;;;;;;2.30;0.52;;;20.60;45.40;;;;;;5033661;28;20045;-64
2022/04/05 07:36:34;;;;;;;5.40;0.70;;;20.60;44.60;;;;;;5016246;28;20123;-63
2022/04/05 07:39:00;;;;;;;0.73;0.43;;;20.60;44.60;;;;;;5033850;28;20481;-62
2022/04/05 07:41:26;;;;;;;0.63;0.30;;;20.60;44.70;;;;;;5002141;28;20662;-62
2022/04/05 07:43:52;;;;;;;0.95;0.40;;;20.60;44.70;;;;;;5016286;28;20548;-63
2022/04/05 07:46:17;;;;;;;1.38;0.50;;;20.60;44.70;;;;;;5016737;28;20080;-62
2022/04/05 07:48:46;;;;;;;0.30;0.30;;;20.60;44.70;;;;;;5001549;28;20055;-62
2022/04/05 07:51:13;;;;;;;2.05;0.57;;;20.70;44.70;;;;;;5017176;28;20370;-62
2022/04/05 07:53:38;;;;;;;1.88;0.30;;;20.70;44.70;;;;;;5017250;28;20057;-61
2022/04/05 07:56:04;;;;;;;1.05;0.35;;;20.70;44.70;;;;;;5036501;28;20045;-62
2022/04/05 07:58:30;;;;;;;1.65;0.43;;;20.70;44.70;;;;;;5002403;28;20080;-62
2022/04/05 08:00:56;;;;;;;1.58;0.35;;;20.70;44.60;;;;;;4999782;28;20085;-62
2022/04/05 08:03:22;;;;;;;0.50;0.40;;;20.70;44.60;;;;;;5017355;28;20049;-65
2022/04/05 08:05:49;;;;;;;1.08;0.47;;;20.70;44.60;;;;;;5034121;28;20099;-62
2022/04/05 08:08:14;;;;;;;0.95;0.40;;;20.70;44.60;;;;;;5035324;28;20152;-63
2022/04/05 08:10:40;;;;;;;0.45;0.20;;;20.70;44.60;;;;;;5033194;28;20217;-62
2022/04/05 08:13:06;;;;;;;1.38;0.30;;;20.70;44.50;;;;;;5014579;28;20345;-61
2022/04/05 08:15:32;;;;;;;1.38;0.30;;;20.70;44.60;;;;;;5014869;28;20052;-62
2022/04/05 08:17:57;;;;;;;0.30;0.20;;;20.80;44.60;;;;;;5014009;28;20465;-62
2022/04/05 08:20:24;;;;;;;1.70;0.40;;;20.70;44.50;;;;;;5034204;28;20370;-63
2022/04/05 08:22:49;;;;;;;1.27;0.30;;;20.70;44.50;;;;;;5015504;28;20081;-63
2022/04/05 08:25:17;;;;;;;0.70;0.20;;;20.70;44.50;;;;;;5015704;28;20082;-64
2022/04/05 08:27:45;;;;;;;0.50;0.30;;;20.80;44.60;;;;;;5035449;28;20545;-64
2022/04/05 08:30:15;;;;;;;1.48;0.47;;;20.80;44.70;;;;;;5015913;28;20126;-64
2022/04/05 08:32:42;;;;;;;0.68;0.30;;;20.80;44.70;;;;;;5016933;28;20060;-66
2022/04/05 08:35:09;;;;;;;0.30;0.20;;;20.80;44.70;;;;;;5037135;28;20049;-63
2022/04/05 08:37:35;;;;;;;0.82;0.20;;;20.80;44.80;;;;;;4998523;28;20122;-64
2022/04/05 08:40:06;;;;;;;0.30;0.20;;;20.80;44.80;;;;;;5011521;28;20713;-64
2022/04/05 08:42:33;;;;;;;0.93;0.45;;;20.80;44.80;;;;;;5014450;28;20053;-63
2022/04/05 08:45:00;;;;;;;1.10;0.20;;;20.80;45.60;;;;;;5013332;28;20526;-62
2022/04/05 08:47:28;;;;;;;0.77;0.30;;;20.80;44.90;;;;;;5030274;28;20045;-64
2022/04/05 08:49:55;;;;;;;0.50;0.22;;;20.80;45.00;;;;;;5030687;28;20056;-62
2022/04/05 08:52:21;;;;;;;0.52;0.30;;;20.80;45.00;;;;;;5014972;28;20051;-63
2022/04/05 08:54:47;;;;;;;0.52;0.28;;;20.80;45.10;;;;;;5014283;28;20057;-64
2022/04/05 08:57:12;;;;;;;1.23;0.38;;;20.80;45.10;;;;;;5031502;28;20050;-63
2022/04/05 08:59:38;;;;;;;0.50;0.40;;;20.80;45.10;;;;;;5014117;28;20072;-65
2022/04/05 09:02:04;;;;;;;1.85;0.40;;;20.80;45.10;;;;;;5031317;28;20055;-65
2022/04/05 09:04:33;;;;;;;0.60;0.22;;;20.90;45.20;;;;;;5016937;28;20045;-64
2022/04/05 09:07:21;;;;;;;0.38;0.20;;;20.90;45.30;;;;;;5016498;28;20045;-62
2022/04/05 09:10:15;;;;;;;0.40;0.30;;;20.90;45.30;;;;;;5018107;28;20041;-64
2022/04/05 09:12:48;;;;;;;0.30;0.30;;;20.90;45.30;;;;;;5001756;28;20080;-62
2022/04/05 09:15:16;;;;;;;0.30;0.30;;;20.90;45.20;;;;;;5033164;28;20057;-61
2022/04/05 09:17:45;;;;;;;1.30;0.30;;;20.90;45.20;;;;;;5034366;28;20069;-62
2022/04/05 09:20:12;;;;;;;1.90;0.55;;;20.90;45.20;;;;;;5034092;28;20099;-62
2022/04/05 09:22:38;;;;;;;0.20;0.20;;;20.90;45.20;;;;;;5017226;28;20617;-62
2022/04/05 09:25:07;;;;;;;0.32;0.30;;;20.90;45.20;;;;;;5034001;28;20041;-62
2022/04/05 09:27:42;;;;;;;0.77;0.40;;;20.90;45.20;;;;;;5034479;28;20045;-61
2022/04/05 09:30:21;;;;;;;0.40;0.40;;;21.00;45.30;;;;;;5014189;28;20057;-63
2022/04/05 09:32:48;;;;;;;0.30;0.30;;;21.00;45.20;;;;;;5033501;28;20048;-62
2022/04/05 09:35:18;;;;;;;0.43;0.30;;;20.90;45.10;;;;;;5034499;28;20048;-61
2022/04/05 09:37:44;;;;;;;1.00;0.30;;;21.00;45.20;;;;;;5018353;28;20057;-62
2022/04/05 09:40:26;;;;;;;0.50;0.38;;;21.00;45.20;;;;;;5015189;28;20123;-62
2022/04/05 09:43:07;;;;;;;0.98;0.60;;;21.00;45.10;;;;;;5033511;28;20049;-62
2022/04/05 09:45:44;;;;;;;0.77;0.30;;;21.00;45.10;;;;;;5033503;28;20451;-62
2022/04/05 09:48:11;;;;;;;0.45;0.30;;;21.00;45.20;;;;;;5016379;28;20115;-62
2022/04/05 09:51:10;;;;;;;0.65;0.47;;;21.00;45.10;;;;;;5017452;28;20057;-62
2022/04/05 09:53:39;;;;;;;0.80;0.52;;;21.00;45.10;;;;;;5032018;28;20889;-64
2022/04/05 09:56:11;;;;;;;0.40;0.40;;;21.00;45.00;;;;;;5015957;28;20044;-62
2022/04/05 09:58:44;;;;;;;0.60;0.40;;;21.00;45.00;;;;;;5033058;28;20572;-62
2022/04/05 10:01:11;;;;;;;0.73;0.30;;;21.00;45.00;;;;;;5032889;28;20053;-62
2022/04/05 10:04:10;;;;;;;0.93;0.70;;;21.00;45.00;;;;;;5029477;28;20673;-62
2022/04/05 10:06:39;;;;;;;0.60;0.50;;;21.00;45.00;;;;;;5015384;28;20041;-61
2022/04/05 10:09:06;;;;;;;0.75;0.50;;;21.00;45.00;;;;;;5018447;28;20127;-62
2022/04/05 10:11:34;;;;;;;0.50;0.50;;;21.00;45.00;;;;;;5035052;28;20052;-62
2022/04/05 10:14:00;;;;;;;0.63;0.50;;;21.00;45.00;;;;;;5017303;28;20079;-62
2022/04/05 10:16:28;;;;;;;0.90;0.55;;;21.00;45.00;;;;;;5019321;28;20485;-64
2022/04/05 10:18:58;;;;;;;0.85;0.70;;;21.10;45.00;;;;;;5017915;28;20052;-62
2022/04/05 10:21:27;;;;;;;0.90;0.70;;;21.00;45.00;;;;;;5036277;28;20060;-63
2022/04/05 10:23:55;;;;;;;1.27;0.70;;;21.10;45.00;;;;;;5020188;28;20053;-61
2022/04/05 10:26:25;;;;;;;1.20;0.88;;;21.10;45.00;;;;;;5019569;28;20053;-63
2022/04/05 10:28:52;;;;;;;0.82;0.80;;;21.10;45.10;;;;;;5025767;28;20135;-62
2022/04/05 10:31:31;;;;;;;1.90;1.10;;;21.10;45.10;;;;;;5027336;28;20123;-61
2022/04/05 10:34:09;;;;;;;0.98;0.73;;;21.10;45.20;;;;;;5018596;28;20420;-62
2022/04/05 10:36:34;;;;;;;1.13;0.70;;;21.10;45.30;;;;;;5017479;28;20057;-62
2022/04/05 10:39:17;;;;;;;0.88;0.88;;;21.00;45.20;;;;;;5036794;28;20125;-63
2022/04/05 10:42:04;;;;;;;1.00;0.77;;;21.10;45.20;;;;;;5018692;28;20053;-62
2022/04/05 10:44:29;;;;;;;1.27;0.65;;;21.10;45.20;;;;;;5019829;28;20524;-63
2022/04/05 10:46:58;;;;;;;0.80;0.70;;;21.00;45.20;;;;;;5004486;28;20055;-63
2022/04/05 10:49:43;;;;;;;1.05;0.60;;;21.10;45.30;;;;;;5037263;28;21301;-64
2022/04/05 10:52:17;;;;;;;3.20;0.88;;;21.10;45.50;;;;;;5019258;28;20049;-64
2022/04/05 10:54:51;;;;;;;1.58;0.68;;;21.10;45.50;;;;;;5018104;28;20061;-62
2022/04/05 10:57:30;;;;;;;1.55;0.95;;;21.10;45.60;;;;;;5014901;28;20095;-63
2022/04/05 11:00:00;;;;;;;0.60;0.60;;;21.10;45.70;;;;;;5036689;28;20049;-65
2022/04/05 11:02:35;;;;;;;1.35;0.70;;;21.10;45.90;;;;;;5027271;28;20477;-63
2022/04/05 11:05:18;;;;;;;0.77;0.52;;;21.10;46.00;;;;;;5035825;28;20247;-63
2022/04/05 11:07:59;;;;;;;0.60;0.60;;;21.10;46.20;;;;;;5018314;28;20132;-62
2022/04/05 11:10:26;;;;;;;;;;;21.10;46.30;;;;;;5036437;28;20132;-63
2022/04/05 11:13:15;;;;;;;0.85;0.75;;;21.10;46.60;;;;;;5018432;28;20261;-61
2022/04/05 11:15:44;;;;;;;1.10;0.80;;;21.10;46.40;;;;;;5032272;28;20056;-63
2022/04/05 11:18:11;;;;;;;0.90;0.60;;;21.10;46.60;;;;;;5035980;28;20037;-63
2022/04/05 11:20:39;;;;;;;0.68;0.68;;;21.10;47.30;;;;;;5036910;28;20134;-62
2022/04/05 11:23:05;;;;;;;0.70;0.70;;;21.10;46.70;;;;;;5017441;28;20058;-62
2022/04/05 11:25:31;;;;;;;2.45;0.70;;;21.10;46.80;;;;;;5017879;28;20049;-62
2022/04/05 11:28:21;;;;;;;0.68;0.60;;;21.10;46.90;;;;;;5017070;28;20509;-64
2022/04/05 11:30:56;;;;;;;1.02;0.80;;;21.10;47.00;;;;;;4999004;28;20099;-63
2022/04/05 11:33:31;;;;;;;1.60;0.60;;;21.10;46.90;;;;;;5004356;28;20052;-62
2022/04/05 11:35:57;;;;;;;2.00;1.00;;;21.10;47.10;;;;;;5030675;28;20041;-63
2022/04/05 11:38:25;;;;;;;1.33;0.70;;;21.10;47.00;;;;;;5031608;28;20037;-63
2022/04/05 11:41:05;;;;;;;1.23;0.88;;;21.10;47.10;;;;;;5015474;28;20059;-65
2022/04/05 11:43:43;;;;;;;2.72;0.93;;;21.10;47.10;;;;;;5034545;28;20136;-62
2022/04/05 11:46:11;;;;;;;0.98;0.55;;;21.10;47.00;;;;;;5009430;28;20080;-64
2022/04/05 11:48:48;;;;;;;2.13;0.98;;;21.10;47.10;;;;;;5018968;28;20048;-64
2022/04/05 11:51:16;;;;;;;3.17;0.95;;;21.10;47.20;;;;;;5017316;28;20060;-63
2022/04/05 11:53:43;;;;;;;1.15;0.77;;;21.10;47.10;;;;;;5034453;28;20512;-63
2022/04/05 11:56:21;;;;;;;1.73;0.80;;;21.10;47.20;;;;;;5019146;28;20102;-63
2022/04/05 11:58:52;;;;;;;2.60;0.90;;;21.10;47.20;;;;;;5007553;28;20127;-64
2022/04/05 12:01:25;;;;;;;1.45;0.88;;;21.10;47.20;;;;;;5001801;28;20053;-62
2022/04/05 12:03:54;;;;;;;1.98;1.17;;;21.10;47.20;;;;;;5002170;28;20504;-66
2022/04/05 12:06:20;;;;;;;1.52;0.90;;;21.10;47.20;;;;;;5033711;28;20060;-64
2022/04/05 12:08:48;;;;;;;1.80;0.98;;;21.10;47.20;;;;;;5016783;28;20147;-62
2022/04/05 12:11:19;;;;;;;1.67;0.88;;;21.10;47.20;;;;;;5033630;28;20042;-62
2022/04/05 12:13:58;;;;;;;1.02;0.90;;;21.10;47.20;;;;;;5007196;28;20049;-63
2022/04/05 12:16:28;;;;;;;1.23;0.88;;;21.10;47.20;;;;;;5033597;28;20469;-63
2022/04/05 12:18:56;;;;;;;1.98;1.15;;;21.10;47.20;;;;;;5025372;28;20092;-64
2022/04/05 12:21:24;;;;;;;0.88;0.88;;;21.10;47.30;;;;;;5016145;28;20049;-64
2022/04/05 12:23:51;;;;;;;2.08;1.23;;;21.10;47.20;;;;;;5014766;28;20035;-63
2022/04/05 12:26:25;;;;;;;1.10;1.00;;;21.10;47.30;;;;;;5017951;28;20053;-64
2022/04/05 12:28:53;;;;;;;1.73;1.23;;;21.10;47.30;;;;;;5033798;28;20033;-62
2022/04/05 12:31:22;;;;;;;2.88;1.23;;;21.10;47.50;;;;;;5016619;28;20863;-60
2022/04/05 12:34:02;;;;;;;2.15;1.27;;;21.00;47.60;;;;;;5000819;28;20045;-61
2022/04/05 12:36:36;;;;;;;2.53;1.17;;;21.10;47.80;;;;;;5032167;28;20037;-62
2022/04/05 12:39:07;;;;;;;2.58;1.20;;;21.10;47.90;;;;;;5032493;28;20497;-62
2022/04/05 12:41:41;;;;;;;5.50;1.50;;;21.10;47.80;;;;;;5034048;28;20108;-62
2022/04/05 12:44:12;;;;;;;3.20;1.45;;;21.10;47.90;;;;;;5022669;28;20427;-62
2022/04/05 12:46:50;;;;;;;3.20;1.35;;;21.00;47.90;;;;;;5033005;28;20048;-61
2022/04/05 12:49:23;;;;;;;10.05;1.40;;;21.00;48.10;;;;;;5033440;28;20127;-62
2022/04/05 12:51:50;;;;;;;3.90;1.45;;;21.00;48.30;;;;;;5017839;28;20154;-62